createdAt,value
2017-12-14T00:02:46.604Z,5.50
2017-12-14T00:07:47.651Z,5.50
2017-12-14T00:12:48.669Z,5.50
2017-12-14T00:17:50.418Z,5.60
2017-12-14T00:22:51.404Z,5.50
2017-12-14T00:27:52.390Z,5.60
2017-12-14T00:32:53.396Z,5.70
2017-12-14T00:37:54.429Z,5.60
2017-12-14T00:42:55.436Z,5.60
2017-12-14T00:47:56.433Z,5.60
2017-12-14T00:52:57.424Z,5.60
2017-12-14T00:57:59.173Z,5.70
2017-12-14T01:03:00.201Z,5.70
2017-12-14T01:08:01.936Z,5.70
2017-12-14T01:13:03.681Z,5.80
2017-12-14T01:18:04.675Z,5.70
2017-12-14T01:23:05.677Z,5.80
2017-12-14T01:28:07.409Z,5.70
2017-12-14T01:33:08.401Z,5.60
2017-12-14T01:38:09.377Z,5.70
2017-12-14T01:43:10.339Z,5.80
2017-12-14T01:48:11.345Z,5.80
2017-12-14T01:53:12.305Z,5.90
2017-12-14T01:58:13.374Z,5.90
2017-12-14T02:03:14.385Z,6.00
2017-12-14T02:08:15.393Z,6.00
2017-12-14T02:13:16.373Z,6.00
2017-12-14T02:18:17.341Z,5.90
2017-12-14T02:23:18.313Z,6.00
2017-12-14T02:28:19.268Z,5.90
2017-12-14T02:33:28.101Z,6.00
2017-12-14T02:38:29.112Z,5.90
2017-12-14T02:43:30.847Z,6.10
2017-12-14T02:48:31.810Z,6.00
2017-12-14T02:53:33.581Z,6.10
2017-12-14T02:58:34.580Z,6.00
2017-12-14T03:03:36.319Z,6.00
2017-12-14T03:08:37.373Z,5.90
2017-12-14T03:13:39.124Z,5.90
2017-12-14T03:18:40.125Z,5.90
2017-12-14T03:23:41.097Z,5.90
2017-12-14T03:28:42.124Z,5.90
2017-12-14T03:33:43.906Z,5.80
2017-12-14T03:38:44.908Z,5.70
2017-12-14T03:43:46.669Z,5.60
2017-12-14T03:48:47.652Z,5.50
2017-12-14T03:53:48.616Z,5.40
2017-12-14T03:58:49.629Z,5.30
2017-12-14T04:03:50.625Z,5.20
2017-12-14T04:08:51.657Z,5.20
2017-12-14T04:13:52.735Z,5.20
2017-12-14T04:18:53.761Z,5.20
2017-12-14T04:23:54.730Z,5.20
2017-12-14T04:28:55.733Z,5.20
2017-12-14T04:33:56.724Z,5.20
2017-12-14T04:38:58.428Z,5.00
2017-12-14T04:44:00.127Z,5.00
2017-12-14T04:49:01.820Z,5.00
2017-12-14T04:54:02.799Z,5.00
2017-12-14T04:59:04.507Z,4.90
2017-12-14T05:04:06.193Z,5.00
2017-12-14T05:09:07.148Z,4.90
2017-12-14T05:14:08.104Z,4.90
2017-12-14T05:19:09.049Z,4.90
2017-12-14T05:24:10.747Z,4.80
2017-12-14T05:29:12.449Z,4.90
2017-12-14T05:34:14.157Z,4.80
2017-12-14T05:39:15.150Z,4.80
2017-12-14T05:44:16.481Z,4.70
2017-12-14T05:49:17.454Z,4.70
2017-12-14T05:54:18.469Z,4.60
2017-12-14T05:59:20.192Z,4.80
2017-12-14T06:04:21.205Z,4.70
2017-12-14T06:09:22.253Z,4.70
2017-12-14T06:14:23.960Z,4.60
2017-12-14T06:19:24.981Z,4.60
2017-12-14T06:24:26.673Z,4.50
2017-12-14T06:29:27.645Z,4.40
2017-12-14T06:34:28.649Z,4.30
2017-12-14T06:39:29.593Z,4.50
2017-12-14T06:44:30.665Z,4.50
2017-12-14T06:49:32.395Z,4.40
2017-12-14T06:54:33.360Z,4.40
2017-12-14T06:59:34.317Z,4.20
2017-12-14T07:04:35.301Z,4.40
2017-12-14T07:09:37.041Z,4.30
2017-12-14T07:14:38.001Z,4.30
2017-12-14T07:19:40.045Z,4.30
2017-12-14T07:24:41.037Z,4.30
2017-12-14T07:29:42.064Z,4.50
2017-12-14T07:34:43.016Z,4.50
2017-12-14T07:39:44.110Z,4.50
2017-12-14T07:44:45.809Z,4.50
2017-12-14T07:49:47.521Z,4.50
2017-12-14T07:54:49.221Z,4.50
2017-12-14T07:59:50.904Z,4.50
2017-12-14T08:04:51.853Z,4.50
2017-12-14T08:09:52.830Z,4.60
2017-12-14T08:14:53.784Z,4.80
2017-12-14T08:19:54.756Z,4.80
2017-12-14T08:24:56.462Z,4.90
2017-12-14T08:29:57.440Z,4.80
2017-12-14T08:34:58.549Z,4.90
2017-12-14T08:39:59.589Z,4.90
2017-12-14T08:45:01.344Z,5.00
2017-12-14T08:50:02.342Z,4.90
2017-12-14T08:55:03.365Z,4.90
2017-12-14T09:00:04.362Z,5.00
2017-12-14T09:05:09.944Z,5.00
2017-12-14T09:10:12.744Z,5.10
2017-12-14T09:15:13.736Z,5.20
2017-12-14T09:20:15.476Z,5.30
2017-12-14T09:25:16.438Z,5.30
2017-12-14T09:30:17.531Z,5.40
2017-12-14T09:35:18.583Z,5.40
2017-12-14T09:40:19.581Z,5.50
2017-12-14T09:45:21.293Z,5.90
2017-12-14T09:50:22.288Z,5.80
2017-12-14T09:55:23.292Z,6.00
2017-12-14T10:00:24.310Z,6.50
2017-12-14T10:05:25.346Z,6.90
2017-12-14T10:10:26.314Z,6.40
2017-12-14T10:15:27.353Z,6.10
2017-12-14T10:20:28.333Z,6.10
2017-12-14T10:25:29.301Z,6.00
2017-12-14T10:30:30.357Z,6.00
2017-12-14T10:35:31.376Z,5.90
2017-12-14T10:40:32.350Z,5.90
2017-12-14T10:45:33.369Z,5.90
2017-12-14T10:50:35.132Z,6.00
2017-12-14T10:55:36.885Z,6.30
2017-12-14T11:00:44.125Z,6.20
2017-12-14T11:05:45.234Z,6.30
2017-12-14T11:10:46.196Z,6.40
2017-12-14T11:15:47.284Z,6.40
2017-12-14T11:20:48.300Z,6.30
2017-12-14T11:25:49.297Z,6.20
2017-12-14T11:30:51.054Z,6.30
2017-12-14T11:35:52.056Z,6.30
2017-12-14T11:40:53.056Z,6.30
2017-12-14T11:45:54.894Z,6.40
2017-12-14T11:50:55.884Z,6.40
2017-12-14T11:55:56.926Z,6.50
2017-12-14T12:00:58.691Z,6.50
2017-12-14T12:05:59.738Z,6.40
2017-12-14T12:11:00.811Z,6.60
2017-12-14T12:16:02.748Z,6.80
2017-12-14T12:21:03.785Z,6.80
2017-12-14T12:26:04.793Z,6.90
2017-12-14T12:31:06.564Z,7.00
2017-12-14T12:36:07.572Z,6.90
2017-12-14T12:41:08.613Z,7.00
2017-12-14T12:46:09.588Z,7.00
2017-12-14T12:51:10.593Z,7.20
2017-12-14T12:56:11.666Z,7.20
2017-12-14T13:01:12.653Z,7.00
2017-12-14T13:06:13.656Z,7.00
2017-12-14T13:11:14.657Z,6.90
2017-12-14T13:16:16.382Z,6.90
2017-12-14T13:21:17.354Z,6.80
2017-12-14T13:26:18.370Z,6.80
2017-12-14T13:31:19.395Z,6.80
2017-12-14T13:36:20.450Z,6.80
2017-12-14T13:41:21.498Z,6.70
2017-12-14T13:46:22.489Z,6.80
2017-12-14T13:51:23.504Z,6.80
2017-12-14T13:56:24.533Z,6.80
2017-12-14T14:01:25.515Z,6.80
2017-12-14T14:06:26.532Z,6.70
2017-12-14T14:11:27.565Z,6.80
2017-12-14T14:16:28.561Z,6.70
2017-12-14T14:21:29.576Z,6.70
2017-12-14T14:26:30.572Z,6.70
2017-12-14T14:31:31.625Z,6.70
2017-12-14T14:36:32.585Z,6.60
2017-12-14T14:41:33.600Z,6.60
2017-12-14T14:46:34.612Z,6.60
2017-12-14T14:51:35.709Z,6.60
2017-12-14T14:56:37.490Z,6.50
2017-12-14T15:01:38.502Z,6.50
2017-12-14T15:06:40.293Z,6.50
2017-12-14T15:11:42.014Z,6.40
2017-12-14T15:16:43.765Z,6.40
2017-12-14T15:21:44.781Z,6.30
2017-12-14T15:26:45.809Z,6.30
2017-12-14T15:31:46.821Z,6.30
2017-12-14T15:36:48.553Z,6.30
2017-12-14T15:41:49.578Z,6.30
2017-12-14T15:46:50.617Z,6.30
2017-12-14T15:51:51.684Z,6.40
2017-12-14T15:56:52.690Z,6.30
2017-12-14T16:01:54.469Z,6.30
2017-12-14T16:06:55.465Z,6.30
2017-12-14T16:11:56.444Z,6.30
2017-12-14T16:16:58.168Z,6.20
2017-12-14T16:21:59.250Z,6.20
2017-12-14T16:27:00.387Z,6.20
2017-12-14T16:32:01.391Z,6.20
2017-12-14T16:37:03.137Z,6.20
2017-12-14T16:42:04.144Z,6.10
2017-12-14T16:47:05.205Z,6.20
2017-12-14T16:52:06.225Z,6.20
2017-12-14T16:57:07.201Z,6.20
2017-12-14T17:02:08.185Z,6.10
2017-12-14T17:07:09.218Z,6.10
2017-12-14T17:12:11.019Z,6.10
2017-12-14T17:17:11.996Z,6.10
2017-12-14T17:22:12.968Z,6.00
2017-12-14T17:27:13.945Z,6.00
2017-12-14T17:32:15.708Z,6.00
2017-12-14T17:37:16.742Z,5.90
2017-12-14T17:42:18.491Z,5.90
2017-12-14T17:47:19.484Z,5.80
2017-12-14T17:52:20.465Z,5.90
2017-12-14T17:57:21.452Z,5.90
2017-12-14T18:02:22.521Z,5.80
2017-12-14T18:07:24.532Z,5.80
2017-12-14T18:12:25.524Z,5.70
2017-12-14T18:17:26.632Z,5.70
2017-12-14T18:22:28.365Z,5.60
2017-12-14T18:27:29.357Z,5.60
2017-12-14T18:32:30.389Z,5.50
2017-12-14T18:37:32.126Z,5.40
2017-12-14T18:42:33.142Z,5.30
2017-12-14T18:47:34.223Z,5.30
2017-12-14T18:52:35.296Z,5.90
2017-12-14T18:57:36.349Z,5.30
2017-12-14T19:02:38.113Z,5.10
2017-12-14T19:07:39.265Z,5.00
2017-12-14T19:12:40.316Z,5.10
2017-12-14T19:17:42.069Z,5.00
2017-12-14T19:22:43.105Z,4.90
2017-12-14T19:27:44.098Z,5.00
2017-12-14T19:32:45.136Z,4.90
2017-12-14T19:37:46.452Z,5.00
2017-12-14T19:42:47.504Z,5.00
2017-12-14T19:47:48.473Z,4.90
2017-12-14T19:52:49.437Z,4.80
2017-12-14T19:57:50.442Z,4.80
2017-12-14T20:02:51.449Z,4.80
2017-12-14T20:07:52.396Z,4.80
2017-12-14T20:12:56.646Z,5.00
2017-12-14T20:17:59.131Z,4.90
2017-12-14T20:23:00.177Z,4.80
2017-12-14T20:28:02.623Z,4.70
2017-12-14T20:33:04.752Z,4.70
2017-12-14T20:38:06.447Z,4.60
2017-12-14T20:43:08.339Z,4.70
2017-12-14T20:48:09.305Z,4.70
2017-12-14T20:53:11.001Z,4.60
2017-12-14T20:58:12.069Z,4.60
2017-12-14T21:03:13.098Z,4.60
2017-12-14T21:08:14.185Z,4.70
2017-12-14T21:13:15.132Z,4.70
2017-12-14T21:18:16.097Z,4.70
2017-12-14T21:23:17.064Z,4.70
2017-12-14T21:28:18.057Z,4.60
2017-12-14T21:33:19.065Z,4.60
2017-12-14T21:38:20.781Z,4.60
2017-12-14T21:43:21.781Z,4.60
2017-12-14T21:48:22.850Z,4.70
2017-12-14T21:53:23.832Z,4.70
2017-12-14T21:58:24.881Z,4.60
2017-12-14T22:03:25.869Z,4.70
2017-12-14T22:08:26.828Z,4.70
2017-12-14T22:13:27.810Z,4.80
2017-12-14T22:18:28.787Z,4.90
2017-12-14T22:23:29.781Z,5.00
2017-12-14T22:28:30.748Z,5.10
2017-12-14T22:33:31.734Z,5.10
2017-12-14T22:38:32.701Z,5.20
2017-12-14T22:43:33.658Z,5.20
2017-12-14T22:48:34.621Z,5.20
2017-12-14T22:53:36.332Z,5.10
2017-12-14T22:58:37.329Z,5.10
2017-12-14T23:03:38.310Z,5.10
2017-12-14T23:08:39.282Z,5.00
2017-12-14T23:13:40.261Z,5.00
2017-12-14T23:18:41.320Z,5.00
2017-12-14T23:23:43.074Z,5.00
2017-12-14T23:28:44.060Z,4.90
2017-12-14T23:33:45.060Z,4.90
2017-12-14T23:38:46.048Z,4.90
2017-12-14T23:43:47.033Z,5.00
2017-12-14T23:48:48.025Z,5.00
2017-12-14T23:53:49.020Z,5.00
2017-12-14T23:58:49.988Z,5.00
